Time;durP1;ratioP1;P1;durP2;ratioP2;P2;SDS_P1;SDS_P2;PMS_P1;PMS_P2;Temp;Humidity;BMP_temperature;BMP_pressure;BME280_temperature;BME280_humidity;BME280_pressure;Samples;Min_cycle;Max_cycle;Signal;HPM_P1;HPM_P2
2023/04/21 00:02:02;;;;;;;46.70;35.47;;;7.70;99.90;;;;;;5073111;28;20071;-50
2023/04/21 00:04:28;;;;;;;49.75;36.00;;;7.60;99.90;;;;;;5072835;28;20032;-47
2023/04/21 00:06:54;;;;;;;50.17;37.28;;;7.70;99.90;;;;;;5072618;28;20036;-52
2023/04/21 00:09:20;;;;;;;54.67;37.08;;;7.60;99.90;;;;;;5072822;28;20032;-51
2023/04/21 00:11:46;;;;;;;52.97;36.75;;;7.60;99.90;;;;;;5072703;28;20453;-49
2023/04/21 00:14:11;;;;;;;55.28;37.03;;;7.50;99.90;;;;;;5072737;28;20055;-51
2023/04/21 00:16:37;;;;;;;54.08;38.45;;;7.60;99.90;;;;;;5072803;28;20024;-50
2023/04/21 00:19:05;;;;;;;55.72;38.33;;;7.50;99.90;;;;;;5072654;28;20021;-48
2023/04/21 00:21:32;;;;;;;56.67;40.10;;;7.60;99.90;;;;;;5073185;28;20020;-49
2023/04/21 00:23:57;;;;;;;79.85;50.30;;;7.60;99.90;;;;;;5072341;28;20423;-52
2023/04/21 00:26:23;;;;;;;60.17;39.55;;;7.70;99.90;;;;;;5072671;28;20025;-47
2023/04/21 00:28:48;;;;;;;62.45;40.65;;;7.60;99.90;;;;;;5072210;28;20098;-49
2023/04/21 00:31:14;;;;;;;63.00;41.08;;;7.60;99.90;;;;;;5072369;28;20017;-52
2023/04/21 00:33:41;;;;;;;61.95;41.67;;;7.60;99.90;;;;;;5072149;28;20041;-51
2023/04/21 00:36:06;;;;;;;57.75;40.67;;;7.50;99.90;;;;;;5072302;28;20104;-53
2023/04/21 00:38:32;;;;;;;59.97;41.47;;;7.40;99.90;;;;;;5072289;28;20029;-48
2023/04/21 00:40:57;;;;;;;59.28;39.45;;;7.30;99.90;;;;;;5071884;28;20086;-49
2023/04/21 00:43:24;;;;;;;58.97;39.60;;;7.30;99.90;;;;;;5072131;28;20546;-50
2023/04/21 00:45:50;;;;;;;57.53;40.97;;;7.30;99.90;;;;;;5072037;28;20494;-51
2023/04/21 00:48:16;;;;;;;59.22;40.92;;;7.30;99.90;;;;;;5072116;28;20037;-50
2023/04/21 00:50:43;;;;;;;60.85;41.42;;;7.20;99.90;;;;;;5072164;28;20078;-50
2023/04/21 00:53:09;;;;;;;60.85;41.00;;;7.20;99.90;;;;;;5071972;28;20449;-50
2023/04/21 00:55:35;;;;;;;56.95;38.67;;;7.20;99.90;;;;;;5071193;28;20453;-51
2023/04/21 00:58:02;;;;;;;58.92;40.35;;;7.20;99.90;;;;;;5071667;28;20549;-51
2023/04/21 01:00:28;;;;;;;58.92;40.63;;;7.10;99.90;;;;;;5071557;28;20403;-51
2023/04/21 01:02:54;;;;;;;64.32;40.45;;;7.10;99.90;;;;;;5071803;28;20036;-50
2023/04/21 01:05:20;;;;;;;65.03;40.50;;;7.10;99.90;;;;;;5071603;28;20024;-51
2023/04/21 01:07:47;;;;;;;60.95;41.70;;;7.10;99.90;;;;;;5071619;28;20024;-50
2023/04/21 01:10:13;;;;;;;63.28;41.00;;;7.10;99.90;;;;;;5071438;28;20020;-51
2023/04/21 01:12:43;;;;;;;61.05;41.05;;;7.10;99.90;;;;;;5071388;28;20400;-49
2023/04/21 01:15:11;;;;;;;68.40;42.25;;;7.00;99.90;;;;;;5071091;28;20096;-48
2023/04/21 01:17:37;;;;;;;63.50;41.47;;;7.00;99.90;;;;;;5071387;28;20084;-52
2023/04/21 01:20:08;;;;;;;62.30;40.45;;;7.00;99.90;;;;;;5071313;28;20031;-51
2023/04/21 01:22:37;;;;;;;70.40;42.72;;;6.90;99.90;;;;;;5071460;28;20031;-48
2023/04/21 01:25:02;;;;;;;60.70;41.70;;;6.90;99.90;;;;;;5071084;28;20397;-49
2023/04/21 01:27:28;;;;;;;62.75;41.10;;;6.90;99.90;;;;;;5071256;28;20048;-48
2023/04/21 01:29:54;;;;;;;58.45;40.08;;;6.80;99.90;;;;;;5071259;28;20032;-51
2023/04/21 01:32:22;;;;;;;62.63;41.00;;;6.80;99.90;;;;;;5071374;28;20392;-46
2023/04/21 01:34:49;;;;;;;61.45;41.08;;;6.80;99.90;;;;;;5071362;28;20077;-48
2023/04/21 01:37:20;;;;;;;63.50;40.40;;;6.80;99.90;;;;;;5071659;28;20025;-50
2023/04/21 01:39:53;;;;;;;62.65;41.00;;;6.70;99.90;;;;;;5070998;28;20060;-48
2023/04/21 01:42:19;;;;;;;65.55;41.42;;;6.80;99.90;;;;;;5071680;28;20016;-48
2023/04/21 01:44:45;;;;;;;65.85;41.38;;;6.80;99.90;;;;;;5071544;28;20013;-51
2023/04/21 01:47:11;;;;;;;61.10;40.83;;;6.80;99.90;;;;;;5071311;28;20020;-53
2023/04/21 01:49:37;;;;;;;70.82;42.25;;;6.80;99.90;;;;;;5070805;28;20838;-51
2023/04/21 01:52:02;;;;;;;65.15;43.10;;;6.90;99.90;;;;;;5071270;28;20017;-48
2023/04/21 01:54:29;;;;;;;62.85;41.25;;;6.80;99.90;;;;;;5070546;28;20086;-49
2023/04/21 01:56:55;;;;;;;63.40;42.33;;;6.70;99.90;;;;;;5071208;28;20074;-51
2023/04/21 01:59:21;;;;;;;61.42;41.08;;;6.70;99.90;;;;;;5071195;28;20020;-50
2023/04/21 02:01:46;;;;;;;60.42;40.55;;;6.70;99.90;;;;;;5071676;28;20094;-50
2023/04/21 02:04:12;;;;;;;57.33;38.45;;;6.60;99.90;;;;;;5071072;28;20033;-51
2023/04/21 02:06:37;;;;;;;61.80;40.28;;;6.60;99.90;;;;;;5071081;28;20040;-53
2023/04/21 02:09:03;;;;;;;58.55;38.65;;;6.60;99.90;;;;;;5071151;28;20033;-51
2023/04/21 02:11:28;;;;;;;57.88;38.13;;;6.50;99.90;;;;;;5070897;28;20033;-51
2023/04/21 02:13:54;;;;;;;59.20;40.00;;;6.60;99.90;;;;;;5070835;28;20060;-54
2023/04/21 02:16:24;;;;;;;66.00;41.22;;;6.60;99.90;;;;;;5071007;28;20506;-51
2023/04/21 02:18:55;;;;;;;65.07;41.42;;;6.60;99.90;;;;;;5070842;28;20445;-52
2023/04/21 02:21:21;;;;;;;70.60;43.75;;;6.70;99.90;;;;;;5071314;28;20024;-52
2023/04/21 02:23:47;;;;;;;74.88;43.67;;;6.70;99.90;;;;;;5070838;28;20108;-48
2023/04/21 02:26:13;;;;;;;70.88;42.33;;;6.70;99.90;;;;;;5070599;28;20434;-50
2023/04/21 02:28:38;;;;;;;68.10;41.60;;;6.60;99.90;;;;;;5070755;28;20040;-51
2023/04/21 02:31:04;;;;;;;68.93;41.38;;;6.60;99.90;;;;;;5070669;28;20060;-48
2023/04/21 02:33:29;;;;;;;71.43;42.58;;;6.70;99.90;;;;;;5070991;28;20075;-48
2023/04/21 02:35:55;;;;;;;72.45;44.45;;;6.60;99.90;;;;;;5070743;28;20074;-49
2023/04/21 02:38:20;;;;;;;75.18;41.22;;;6.60;99.90;;;;;;5071184;28;20030;-51
2023/04/21 02:40:46;;;;;;;68.70;43.13;;;6.60;99.90;;;;;;5070729;28;20329;-49
2023/04/21 02:43:13;;;;;;;66.22;42.00;;;6.70;99.90;;;;;;5070597;28;20113;-51
2023/04/21 02:45:38;;;;;;;74.65;43.08;;;6.70;99.90;;;;;;5070446;28;20032;-48
2023/04/21 02:48:04;;;;;;;71.85;43.40;;;6.60;99.90;;;;;;5070736;28;20425;-49
2023/04/21 02:50:30;;;;;;;71.53;43.60;;;6.60;99.90;;;;;;5071438;28;20154;-48
2023/04/21 02:52:55;;;;;;;81.63;45.92;;;6.60;99.90;;;;;;5074334;28;20021;-50
2023/04/21 02:55:21;;;;;;;66.10;40.53;;;6.60;99.90;;;;;;5073611;28;20484;-50
2023/04/21 02:57:47;;;;;;;75.43;44.78;;;6.60;99.90;;;;;;5074214;28;20092;-47
2023/04/21 03:00:13;;;;;;;83.68;46.95;;;6.60;99.90;;;;;;5073976;28;20560;-48
2023/04/21 03:02:39;;;;;;;73.68;43.47;;;6.60;99.90;;;;;;5074280;28;20028;-48
2023/04/21 03:05:05;;;;;;;70.68;42.95;;;6.60;99.90;;;;;;5073471;28;20025;-49
2023/04/21 03:07:30;;;;;;;73.53;43.50;;;6.50;99.90;;;;;;5073935;28;20020;-49
2023/04/21 03:09:56;;;;;;;73.65;42.95;;;6.40;99.90;;;;;;5073712;28;20038;-51
2023/04/21 03:12:21;;;;;;;77.68;43.05;;;6.40;99.90;;;;;;5073899;28;20381;-49
2023/04/21 03:14:47;;;;;;;77.82;45.67;;;6.30;99.90;;;;;;5073605;28;20028;-51
2023/04/21 03:17:12;;;;;;;78.32;44.05;;;6.40;99.90;;;;;;5073836;28;20370;-48
2023/04/21 03:19:39;;;;;;;78.65;44.40;;;6.50;99.90;;;;;;5073633;28;20472;-48
2023/04/21 03:22:05;;;;;;;81.03;43.45;;;6.50;99.90;;;;;;5073715;28;20020;-51
2023/04/21 03:24:30;;;;;;;89.72;44.83;;;6.50;99.90;;;;;;5073279;28;20027;-50
2023/04/21 03:26:56;;;;;;;90.13;46.00;;;6.50;99.90;;;;;;5073619;28;20103;-49
2023/04/21 03:29:22;;;;;;;79.30;43.50;;;6.40;99.90;;;;;;5055481;28;20165;-50
2023/04/21 03:31:47;;;;;;;79.78;43.15;;;6.40;99.90;;;;;;5073424;28;20035;-50
2023/04/21 03:34:13;;;;;;;79.88;42.63;;;6.30;99.90;;;;;;5073264;28;20028;-52
2023/04/21 03:36:38;;;;;;;84.75;41.53;;;6.30;99.90;;;;;;5073453;28;20024;-52
2023/04/21 03:39:05;;;;;;;91.70;42.95;;;6.30;99.90;;;;;;5072698;28;20073;-49
2023/04/21 03:41:31;;;;;;;100.18;42.85;;;6.20;99.90;;;;;;5073383;28;20020;-48
2023/04/21 03:43:57;;;;;;;99.20;40.53;;;6.20;99.90;;;;;;5055166;28;20411;-53
2023/04/21 03:46:22;;;;;;;105.60;40.20;;;6.30;99.90;;;;;;5073458;28;20024;-50
2023/04/21 03:48:48;;;;;;;166.95;45.05;;;6.30;99.90;;;;;;5073137;28;20086;-50
2023/04/21 03:51:14;;;;;;;88.90;40.00;;;6.40;99.90;;;;;;5072918;28;20545;-51
2023/04/21 03:53:39;;;;;;;174.15;43.67;;;6.40;99.90;;;;;;5072803;28;20025;-50
2023/04/21 03:56:05;;;;;;;153.70;44.88;;;6.30;99.90;;;;;;5072630;28;20098;-49
2023/04/21 03:58:31;;;;;;;180.15;41.53;;;6.30;99.90;;;;;;5072968;28;20078;-49
2023/04/21 04:00:56;;;;;;;225.02;40.58;;;6.30;99.90;;;;;;5072935;28;20032;-50
2023/04/21 04:03:22;;;;;;;136.50;37.42;;;6.30;99.90;;;;;;5072392;28;20028;-50
2023/04/21 04:05:47;;;;;;;186.57;37.80;;;6.20;99.90;;;;;;5072691;28;20036;-48
2023/04/21 04:08:13;;;;;;;163.20;37.30;;;6.10;99.90;;;;;;5072877;28;20028;-50
2023/04/21 04:10:38;;;;;;;220.15;38.63;;;6.10;99.90;;;;;;5072572;28;20503;-51
2023/04/21 04:13:04;;;;;;;242.02;41.20;;;6.10;99.90;;;;;;5072815;28;20028;-48
2023/04/21 04:15:29;;;;;;;279.77;43.58;;;6.00;99.90;;;;;;5071928;28;20029;-49
2023/04/21 04:17:55;;;;;;;166.30;39.47;;;6.00;99.90;;;;;;5072604;28;20031;-48
2023/04/21 04:20:20;;;;;;;192.02;38.38;;;6.10;99.90;;;;;;5072470;28;20024;-48
2023/04/21 04:22:46;;;;;;;207.90;41.10;;;6.10;99.90;;;;;;5072559;28;20212;-48
2023/04/21 04:25:13;;;;;;;248.65;39.90;;;6.10;99.90;;;;;;5072580;28;20104;-51
2023/04/21 04:27:40;;;;;;;248.43;38.58;;;6.10;99.90;;;;;;5072478;28;20416;-51
2023/04/21 04:30:06;;;;;;;264.35;39.53;;;6.00;99.90;;;;;;5054274;28;20373;-48
2023/04/21 04:32:32;;;;;;;234.30;39.10;;;6.00;99.90;;;;;;5054391;28;20080;-49
2023/04/21 04:34:58;;;;;;;328.83;40.10;;;6.00;99.90;;;;;;5072185;28;20020;-47
2023/04/21 04:37:27;;;;;;;253.30;40.40;;;6.00;99.90;;;;;;5072203;28;20027;-49
2023/04/21 04:39:53;;;;;;;380.30;44.05;;;6.00;99.90;;;;;;5072201;28;20025;-49
2023/04/21 04:42:19;;;;;;;321.88;42.95;;;6.00;99.90;;;;;;5054254;28;20025;-49
2023/04/21 04:44:45;;;;;;;145.30;37.47;;;6.10;99.90;;;;;;5071865;28;20013;-49
2023/04/21 04:47:11;;;;;;;106.43;38.83;;;6.10;99.90;;;;;;5072120;28;20027;-49
2023/04/21 04:49:37;;;;;;;195.15;41.03;;;6.20;99.90;;;;;;5071786;28;20036;-52
2023/04/21 04:52:02;;;;;;;237.18;41.00;;;6.20;99.90;;;;;;5072172;28;20404;-48
2023/04/21 04:54:28;;;;;;;285.05;43.97;;;6.20;99.90;;;;;;5071355;28;20432;-49
2023/04/21 04:56:54;;;;;;;225.57;41.95;;;6.30;99.90;;;;;;5071903;28;20473;-49
2023/04/21 04:59:20;;;;;;;218.70;40.13;;;6.30;99.90;;;;;;5054160;28;20421;-53
2023/04/21 05:01:45;;;;;;;101.95;39.50;;;6.30;99.90;;;;;;5072220;28;20025;-50
2023/04/21 05:04:15;;;;;;;208.55;37.65;;;6.40;99.90;;;;;;5071516;28;20020;-49
2023/04/21 05:06:40;;;;;;;183.98;39.60;;;6.40;99.90;;;;;;5071663;28;20017;-53
2023/04/21 05:09:06;;;;;;;168.98;36.92;;;6.40;99.90;;;;;;5071586;28;20546;-51
2023/04/21 05:11:31;;;;;;;164.70;38.08;;;6.40;99.90;;;;;;5071362;28;20028;-49
2023/04/21 05:13:57;;;;;;;265.30;37.55;;;6.50;99.90;;;;;;5070659;28;20027;-49
2023/04/21 05:16:23;;;;;;;277.48;40.83;;;6.50;99.90;;;;;;5071677;28;20078;-51
2023/04/21 05:18:52;;;;;;;292.20;39.50;;;6.50;99.90;;;;;;5071566;28;20021;-49
2023/04/21 05:21:28;;;;;;;278.00;40.53;;;6.50;99.90;;;;;;5071553;28;20479;-50
2023/04/21 05:23:54;;;;;;;;;;;6.50;99.90;;;;;;5071503;28;20028;-51
2023/04/21 05:26:20;;;;;;;195.18;34.33;;;6.50;99.90;;;;;;5071506;28;19933;-48
2023/04/21 05:28:45;;;;;;;128.85;30.25;;;6.40;99.90;;;;;;5071515;28;20480;-46
2023/04/21 05:31:11;;;;;;;131.90;30.48;;;6.40;99.90;;;;;;5071526;28;20029;-52
2023/04/21 05:33:36;;;;;;;144.23;32.97;;;6.40;99.90;;;;;;5071359;28;20495;-49
2023/04/21 05:36:07;;;;;;;115.35;32.65;;;6.40;99.90;;;;;;5071226;28;20025;-48
2023/04/21 05:38:32;;;;;;;85.65;30.15;;;6.50;99.90;;;;;;5071880;28;20017;-51
2023/04/21 05:40:58;;;;;;;67.40;30.48;;;6.50;99.90;;;;;;5071486;28;20035;-49
2023/04/21 05:43:23;;;;;;;81.20;29.42;;;6.50;99.90;;;;;;5071572;28;20399;-52
2023/04/21 05:45:49;;;;;;;140.90;30.67;;;6.50;99.90;;;;;;5071294;28;20056;-49
2023/04/21 05:48:14;;;;;;;94.50;30.70;;;6.60;99.90;;;;;;5071561;28;20112;-47
2023/04/21 05:50:40;;;;;;;73.10;31.02;;;6.50;99.90;;;;;;5071064;28;20595;-52
2023/04/21 05:53:05;;;;;;;115.75;32.08;;;6.60;99.90;;;;;;5071413;28;20029;-49
2023/04/21 05:55:33;;;;;;;134.40;31.67;;;6.70;99.90;;;;;;5071482;28;20082;-50
2023/04/21 05:57:59;;;;;;;91.55;30.40;;;6.70;99.90;;;;;;5071543;28;20489;-51
2023/04/21 06:00:24;;;;;;;96.40;32.25;;;6.70;99.90;;;;;;5071027;28;20056;-53
2023/04/21 06:02:50;;;;;;;89.50;32.65;;;6.70;99.90;;;;;;5071444;28;20020;-48
2023/04/21 06:05:15;;;;;;;78.15;31.45;;;6.80;99.90;;;;;;5071613;28;20029;-47
2023/04/21 06:07:41;;;;;;;68.85;32.00;;;6.90;99.90;;;;;;5071390;28;20039;-49
2023/04/21 06:10:07;;;;;;;65.53;31.38;;;7.00;99.90;;;;;;5071115;28;20037;-53
2023/04/21 06:12:32;;;;;;;83.30;30.85;;;7.20;99.90;;;;;;5071145;28;20025;-51
2023/04/21 06:14:58;;;;;;;65.72;30.42;;;7.20;99.90;;;;;;5070920;28;20032;-50
2023/04/21 06:17:24;;;;;;;64.78;29.50;;;7.20;99.90;;;;;;5071311;28;20031;-49
2023/04/21 06:19:54;;;;;;;62.63;29.02;;;7.20;99.90;;;;;;5070913;28;20024;-48
2023/04/21 06:22:23;;;;;;;67.82;32.20;;;7.20;99.90;;;;;;5071063;28;20426;-50
2023/04/21 06:24:48;;;;;;;58.90;29.00;;;7.20;99.90;;;;;;5070774;28;20027;-49
2023/04/21 06:27:14;;;;;;;56.28;29.83;;;7.20;99.90;;;;;;5074984;28;20547;-49
2023/04/21 06:29:43;;;;;;;58.60;31.15;;;7.20;99.90;;;;;;5074767;28;20476;-48
2023/04/21 06:32:10;;;;;;;59.25;30.33;;;7.40;99.90;;;;;;5074871;28;20035;-48
2023/04/21 06:34:36;;;;;;;55.28;29.80;;;7.40;99.90;;;;;;5074286;28;20025;-47
2023/04/21 06:37:02;;;;;;;53.88;29.67;;;7.50;99.90;;;;;;5074844;28;20071;-54
2023/04/21 06:39:28;;;;;;;55.63;29.90;;;7.40;99.90;;;;;;5074515;28;20063;-50
2023/04/21 06:41:54;;;;;;;52.15;29.40;;;7.50;99.90;;;;;;5074670;28;20029;-49
2023/04/21 06:44:19;;;;;;;53.35;29.20;;;7.50;99.90;;;;;;5074779;28;20028;-50
2023/04/21 06:46:46;;;;;;;52.00;29.25;;;7.50;99.90;;;;;;5074900;28;20111;-49
2023/04/21 06:49:11;;;;;;;50.22;30.17;;;7.60;99.90;;;;;;5074465;28;20024;-50
2023/04/21 06:51:38;;;;;;;52.88;30.70;;;7.60;99.90;;;;;;5074570;28;20040;-52
2023/04/21 06:54:04;;;;;;;53.17;30.75;;;7.60;99.90;;;;;;5073745;28;20043;-53
2023/04/21 06:56:30;;;;;;;54.60;30.55;;;7.70;99.90;;;;;;5074361;28;20024;-50
2023/04/21 06:58:55;;;;;;;50.08;29.65;;;7.70;99.90;;;;;;5074286;28;20021;-48
2023/04/21 07:01:23;;;;;;;48.65;29.88;;;7.80;99.90;;;;;;5074448;28;20056;-50
2023/04/21 07:03:51;;;;;;;57.65;30.20;;;7.90;99.90;;;;;;5074058;28;20066;-51
2023/04/21 07:06:17;;;;;;;47.53;29.42;;;7.90;99.90;;;;;;5074095;28;20028;-51
2023/04/21 07:08:43;;;;;;;53.35;29.27;;;8.00;99.90;;;;;;5073918;28;20028;-54
2023/04/21 07:11:08;;;;;;;51.85;28.65;;;8.00;99.90;;;;;;5074099;28;20438;-49
2023/04/21 07:13:34;;;;;;;45.45;29.00;;;8.20;99.90;;;;;;5074261;28;20020;-50
2023/04/21 07:15:59;;;;;;;45.50;27.88;;;8.40;99.90;;;;;;5073925;28;20051;-52
2023/04/21 07:18:25;;;;;;;44.03;28.63;;;8.60;99.90;;;;;;5073993;28;20025;-53
2023/04/21 07:20:51;;;;;;;44.05;27.50;;;8.70;99.90;;;;;;5074374;28;20387;-50
2023/04/21 07:23:17;;;;;;;38.85;26.63;;;8.90;99.90;;;;;;5074137;28;20628;-51
2023/04/21 07:25:42;;;;;;;40.45;27.88;;;9.00;99.90;;;;;;5073613;28;20029;-54
2023/04/21 07:28:08;;;;;;;36.05;24.20;;;9.00;99.90;;;;;;5074015;28;20417;-50
2023/04/21 07:30:34;;;;;;;40.85;25.23;;;9.10;99.90;;;;;;5073534;28;20082;-52
2023/04/21 07:32:59;;;;;;;37.30;25.85;;;9.10;99.90;;;;;;5073706;28;20024;-49
2023/04/21 07:35:25;;;;;;;39.40;25.85;;;9.20;99.90;;;;;;5073371;28;20024;-51
2023/04/21 07:37:51;;;;;;;36.13;24.15;;;9.40;99.90;;;;;;5072544;28;20048;-52
2023/04/21 07:40:16;;;;;;;34.03;24.45;;;9.50;99.90;;;;;;5073366;28;20067;-50
2023/04/21 07:42:42;;;;;;;38.65;25.00;;;9.50;99.90;;;;;;5073576;28;20037;-52
2023/04/21 07:45:08;;;;;;;33.33;24.05;;;9.70;99.90;;;;;;5072983;28;20051;-50
2023/04/21 07:47:33;;;;;;;34.70;24.13;;;9.70;99.90;;;;;;5073273;28;20048;-51
2023/04/21 07:49:59;;;;;;;33.88;22.92;;;9.80;99.90;;;;;;5073242;28;20047;-52
2023/04/21 07:52:25;;;;;;;38.55;25.20;;;9.80;99.90;;;;;;5073427;28;20074;-52
2023/04/21 07:54:50;;;;;;;33.58;24.20;;;9.70;99.90;;;;;;5072567;28;20033;-53
2023/04/21 07:57:16;;;;;;;32.83;22.17;;;9.60;99.90;;;;;;5055233;28;20020;-49
2023/04/21 07:59:42;;;;;;;33.80;22.75;;;9.60;99.90;;;;;;5073276;28;20040;-50
2023/04/21 08:02:07;;;;;;;34.90;24.48;;;9.60;99.90;;;;;;5073388;28;20031;-52
2023/04/21 08:04:33;;;;;;;42.50;26.75;;;9.60;99.90;;;;;;5055006;28;20108;-50
2023/04/21 08:06:59;;;;;;;34.60;22.73;;;10.00;99.90;;;;;;5073232;28;20032;-53
2023/04/21 08:09:25;;;;;;;26.80;20.38;;;10.80;99.90;;;;;;5073110;28;20032;-48
2023/04/21 08:11:50;;;;;;;26.35;20.13;;;11.40;99.90;;;;;;5073103;28;20051;-49
2023/04/21 08:14:16;;;;;;;23.33;18.17;;;12.00;99.90;;;;;;5072659;28;20020;-50
2023/04/21 08:16:42;;;;;;;23.95;18.45;;;12.80;99.90;;;;;;5072614;28;20105;-46
2023/04/21 08:19:08;;;;;;;18.85;15.15;;;14.00;99.90;;;;;;5072282;28;20391;-50
2023/04/21 08:21:34;;;;;;;17.65;14.82;;;15.00;99.90;;;;;;5072802;28;20434;-48
2023/04/21 08:24:00;;;;;;;19.27;15.90;;;15.40;99.90;;;;;;5072319;28;20066;-51
2023/04/21 08:26:25;;;;;;;19.27;15.20;;;15.20;99.90;;;;;;5072581;28;20024;-47
2023/04/21 08:28:51;;;;;;;17.77;15.85;;;14.80;99.90;;;;;;5072364;28;20039;-50
2023/04/21 08:31:18;;;;;;;19.20;16.15;;;14.40;99.90;;;;;;5072334;28;20028;-45
2023/04/21 08:33:44;;;;;;;19.77;14.95;;;14.30;99.90;;;;;;5072350;28;20020;-46
2023/04/21 08:36:10;;;;;;;16.48;14.48;;;14.50;99.90;;;;;;5072205;28;20065;-48
2023/04/21 08:38:36;;;;;;;17.08;13.98;;;14.70;99.90;;;;;;5054309;28;20051;-47
2023/04/21 08:41:02;;;;;;;14.98;12.77;;;14.80;99.90;;;;;;5072080;28;20052;-51
2023/04/21 08:43:28;;;;;;;18.58;13.57;;;14.70;99.90;;;;;;5072086;28;20036;-48
2023/04/21 08:45:55;;;;;;;16.13;13.27;;;14.60;99.90;;;;;;5071886;28;20122;-51
2023/04/21 08:48:23;;;;;;;26.90;15.10;;;14.80;99.90;;;;;;5070429;28;20032;-56
2023/04/21 08:50:50;;;;;;;17.15;13.50;;;15.70;99.90;;;;;;5058979;28;20594;-48
2023/04/21 08:53:19;;;;;;;17.23;14.07;;;16.90;99.90;;;;;;5070048;28;20117;-49
2023/04/21 08:55:50;;;;;;;14.68;11.77;;;17.10;99.90;;;;;;5058697;28;20519;-49
2023/04/21 08:58:15;;;;;;;14.48;12.15;;;18.00;99.90;;;;;;5051967;28;20064;-48
2023/04/21 09:00:41;;;;;;;15.98;12.15;;;18.40;99.90;;;;;;5066619;28;20105;-50
2023/04/21 09:03:07;;;;;;;12.95;11.45;;;18.50;99.90;;;;;;5069517;28;20392;-52
2023/04/21 09:05:33;;;;;;;13.60;11.60;;;18.70;99.90;;;;;;5056980;28;20024;-50
2023/04/21 09:08:13;;;;;;;14.45;12.63;;;19.10;99.90;;;;;;5071511;28;20492;-51
2023/04/21 09:10:49;;;;;;;12.95;11.27;;;18.70;99.90;;;;;;5071354;28;20032;-50
2023/04/21 09:13:16;;;;;;;18.55;11.98;;;18.40;99.90;;;;;;5070552;28;20029;-53
2023/04/21 09:15:43;;;;;;;15.73;13.23;;;17.90;99.90;;;;;;5070713;28;20127;-52
2023/04/21 09:18:23;;;;;;;15.00;13.40;;;17.50;99.90;;;;;;5071602;28;20125;-51
2023/04/21 09:20:52;;;;;;;16.63;13.50;;;16.70;99.90;;;;;;5051700;28;20027;-50
2023/04/21 09:23:20;;;;;;;20.63;14.23;;;16.60;99.90;;;;;;5065539;28;20394;-49
2023/04/21 09:25:45;;;;;;;16.35;13.40;;;16.70;99.90;;;;;;5069368;28;20070;-53
2023/04/21 09:28:13;;;;;;;16.42;13.73;;;16.70;99.90;;;;;;5068492;28;20025;-50
2023/04/21 09:30:41;;;;;;;18.77;13.55;;;16.60;99.90;;;;;;5069105;28;20052;-53
2023/04/21 09:33:13;;;;;;;17.05;13.18;;;16.80;99.90;;;;;;5069481;28;20035;-53
2023/04/21 09:35:39;;;;;;;19.13;13.38;;;16.90;99.90;;;;;;5056209;28;20485;-52
2023/04/21 09:38:10;;;;;;;19.67;14.68;;;17.00;99.90;;;;;;5056782;28;20055;-53
2023/04/21 09:40:36;;;;;;;17.67;15.00;;;16.80;99.90;;;;;;5071257;28;20619;-50
2023/04/21 09:43:02;;;;;;;18.73;15.63;;;16.60;99.90;;;;;;5058580;28;20105;-53
2023/04/21 09:45:28;;;;;;;18.50;14.32;;;16.50;99.90;;;;;;5050859;28;20028;-53
2023/04/21 09:47:56;;;;;;;18.15;14.65;;;16.50;99.90;;;;;;5051271;28;20029;-54
2023/04/21 09:50:23;;;;;;;20.08;15.07;;;16.70;99.90;;;;;;5064605;28;20064;-52
2023/04/21 09:52:53;;;;;;;18.02;15.23;;;16.60;99.90;;;;;;5070178;28;20032;-55
2023/04/21 09:55:25;;;;;;;18.75;15.82;;;16.50;99.90;;;;;;5070824;28;20025;-51
2023/04/21 09:57:55;;;;;;;24.75;17.58;;;16.40;99.90;;;;;;5060220;28;20400;-51
2023/04/21 10:00:27;;;;;;;23.95;16.67;;;16.40;99.90;;;;;;5051833;28;20365;-50
2023/04/21 10:02:56;;;;;;;20.27;16.35;;;16.20;99.90;;;;;;5055095;28;20041;-53
2023/04/21 10:05:21;;;;;;;21.35;16.58;;;15.60;99.90;;;;;;5054680;28;20086;-52
2023/04/21 10:07:48;;;;;;;22.17;17.80;;;15.50;99.90;;;;;;5055085;28;20108;-53
2023/04/21 10:10:27;;;;;;;23.13;17.90;;;15.50;99.90;;;;;;5066745;28;20079;-55
2023/04/21 10:12:53;;;;;;;23.67;17.02;;;15.00;99.90;;;;;;5056988;28;20039;-51
2023/04/21 10:15:33;;;;;;;22.45;18.02;;;14.90;99.90;;;;;;5074660;28;20035;-48
2023/04/21 10:18:16;;;;;;;21.48;17.10;;;14.90;99.90;;;;;;5074787;28;20568;-51
2023/04/21 10:20:52;;;;;;;23.15;17.58;;;14.80;99.90;;;;;;5074585;28;20099;-51
2023/04/21 10:23:44;;;;;;;26.48;16.92;;;14.80;99.90;;;;;;5074664;28;20437;-51
2023/04/21 10:26:12;;;;;;;21.95;18.15;;;15.20;99.90;;;;;;5074449;28;20399;-46
2023/04/21 10:28:44;;;;;;;24.95;18.30;;;15.10;99.90;;;;;;5064719;28;20024;-54
2023/04/21 10:31:22;;;;;;;23.23;18.58;;;14.80;99.90;;;;;;5074498;28;20035;-48
2023/04/21 10:34:08;;;;;;;23.58;17.88;;;14.80;99.90;;;;;;5073877;28;20099;-49
2023/04/21 10:36:42;;;;;;;22.23;17.50;;;14.30;99.90;;;;;;5056431;28;20369;-57
2023/04/21 10:39:11;;;;;;;23.80;17.90;;;14.60;99.90;;;;;;5061212;28;20043;-54
2023/04/21 10:41:36;;;;;;;33.63;23.83;;;14.60;99.90;;;;;;5073740;28;20138;-54
2023/04/21 10:44:12;;;;;;;26.52;20.63;;;14.70;99.90;;;;;;5073944;28;20020;-53
2023/04/21 10:46:48;;;;;;;26.75;19.55;;;14.60;99.90;;;;;;5073808;28;20024;-57
2023/04/21 10:49:22;;;;;;;28.35;18.90;;;14.50;99.90;;;;;;5074222;28;20041;-55
2023/04/21 10:51:57;;;;;;;21.70;16.98;;;14.50;99.90;;;;;;5073629;28;20056;-56
2023/04/21 10:54:35;;;;;;;24.20;17.58;;;14.60;99.90;;;;;;5073930;28;20090;-58
2023/04/21 10:57:01;;;;;;;23.17;18.15;;;14.70;99.90;;;;;;5073829;28;20033;-57
2023/04/21 10:59:27;;;;;;;25.17;18.17;;;14.70;99.90;;;;;;5073804;28;20099;-58
2023/04/21 11:01:53;;;;;;;22.30;16.80;;;14.70;99.90;;;;;;5056357;28;20066;-59
2023/04/21 11:04:20;;;;;;;23.63;17.88;;;14.80;99.90;;;;;;5055948;28;20434;-57
2023/04/21 11:07:06;;;;;;;25.08;17.92;;;14.80;99.90;;;;;;5055891;28;20028;-56
2023/04/21 11:09:33;;;;;;;23.90;17.25;;;15.10;99.90;;;;;;5073059;28;20060;-55
2023/04/21 11:12:01;;;;;;;23.70;17.48;;;15.10;99.90;;;;;;5072841;28;20059;-54
2023/04/21 11:14:27;;;;;;;23.25;16.98;;;15.10;99.90;;;;;;5073851;28;20025;-55
2023/04/21 11:16:52;;;;;;;18.90;13.70;;;14.90;99.90;;;;;;5054508;28;20020;-56
2023/04/21 11:19:23;;;;;;;23.02;16.95;;;14.80;99.90;;;;;;5055104;28;20031;-57
2023/04/21 11:21:49;;;;;;;21.05;16.10;;;14.60;99.90;;;;;;5073991;28;20444;-59
2023/04/21 11:24:14;;;;;;;21.70;15.93;;;14.50;99.90;;;;;;5073103;28;20028;-53
2023/04/21 11:26:43;;;;;;;25.33;18.70;;;14.60;99.90;;;;;;5056022;28;20476;-53
2023/04/21 11:29:10;;;;;;;21.98;16.00;;;14.60;99.90;;;;;;5072311;28;20029;-55
2023/04/21 11:31:38;;;;;;;24.50;16.70;;;14.60;99.90;;;;;;5073836;28;20095;-55
2023/04/21 11:34:05;;;;;;;24.48;17.10;;;14.60;99.90;;;;;;5073307;28;20032;-56
2023/04/21 11:36:44;;;;;;;20.65;15.43;;;14.50;99.90;;;;;;5073641;28;20017;-55
2023/04/21 11:39:12;;;;;;;22.60;17.33;;;14.50;99.90;;;;;;5073322;28;20024;-56
2023/04/21 11:41:40;;;;;;;23.98;17.85;;;14.50;99.90;;;;;;5073616;28;20372;-56
2023/04/21 11:44:07;;;;;;;22.13;15.23;;;14.40;99.90;;;;;;5073079;28;20111;-56
2023/04/21 11:46:32;;;;;;;20.92;15.63;;;14.30;99.90;;;;;;5073613;28;20035;-56
2023/04/21 11:49:04;;;;;;;19.00;15.73;;;14.40;99.90;;;;;;5055092;28;20028;-53
2023/04/21 11:51:42;;;;;;;25.75;17.38;;;14.60;99.90;;;;;;5073094;28;20035;-58
2023/04/21 11:54:11;;;;;;;22.15;15.95;;;14.70;99.90;;;;;;5073090;28;20036;-56
2023/04/21 11:56:39;;;;;;;21.40;16.10;;;14.70;99.90;;;;;;5073608;28;20037;-55
2023/04/21 11:59:09;;;;;;;21.75;16.77;;;14.70;99.90;;;;;;5072590;28;20024;-56
2023/04/21 12:01:49;;;;;;;19.48;15.23;;;14.70;99.90;;;;;;5072424;28;20054;-51
2023/04/21 12:04:16;;;;;;;20.63;16.17;;;14.50;99.90;;;;;;5072902;28;20499;-54
2023/04/21 12:06:42;;;;;;;19.95;16.20;;;14.50;99.90;;;;;;5072652;28;20090;-52
2023/04/21 12:09:15;;;;;;;30.77;18.30;;;14.60;99.90;;;;;;5073511;28;20074;-54
2023/04/21 12:11:40;;;;;;;93.68;54.08;;;14.70;99.90;;;;;;5072520;28;20557;-56
2023/04/21 12:14:07;;;;;;;21.40;17.10;;;14.70;99.90;;;;;;5072284;28;20028;-52
2023/04/21 12:16:35;;;;;;;20.27;16.20;;;14.80;99.90;;;;;;5072599;28;20074;-54
2023/04/21 12:19:01;;;;;;;21.48;15.60;;;14.90;99.90;;;;;;5072386;28;20016;-55
2023/04/21 12:21:27;;;;;;;23.30;15.73;;;14.90;99.90;;;;;;5072577;28;20024;-58
2023/04/21 12:23:53;;;;;;;22.85;16.95;;;15.00;99.90;;;;;;5071407;28;20067;-59
2023/04/21 12:26:19;;;;;;;19.52;15.30;;;15.00;99.90;;;;;;5071265;28;20068;-61
2023/04/21 12:28:45;;;;;;;20.05;15.73;;;15.10;99.90;;;;;;5071688;28;20038;-56
2023/04/21 12:31:10;;;;;;;20.13;15.93;;;15.00;99.90;;;;;;5072174;28;20099;-56
2023/04/21 12:33:36;;;;;;;27.27;18.45;;;15.00;99.90;;;;;;5071523;28;20035;-55